Egyek, Hungary
Current Conditions -  °F | °C
As of 11:45 AM on Thursday 23 Oct 2014 (Local Time) from LHDC Reporting Station
Light Rain Light Rain  
Wind Chill: 46°   Ceiling: 600
Heat Index: 48°   Visibility: 4mi
Dew Point: 46°   Wind: 6mph
Humidity: 93%   Direction: 40°NE
Pressure: 29.71"   Gusts: NA
Location:  47.62°N, 20.89°E
Report Text: LHDC 230945Z 04005KT 7000 -RADZ BKN006 09/08 Q1006 NOSIG
Loading
Personal Weather Stations






























Interactive Weather Map
Tropical Storm Tracking
New forecast layout! Learn more

10-Day Weather Forecast

Advertisements
Track Severe Weather on mobile